Time;durP1;ratioP1;P1;durP2;ratioP2;P2;SDS_P1;SDS_P2;PMS_P1;PMS_P2;Temp;Humidity;BMP_temperature;BMP_pressure;BME280_temperature;BME280_humidity;BME280_pressure;Samples;Min_cycle;Max_cycle;Signal;HPM_P1;HPM_P2
2022/01/29 00:02:10;;;;;;;4.82;3.33;;;;;;;;;;6157528;23;20306;-68
2022/01/29 00:04:36;;;;;;;7.38;3.45;;;;;;;;;;6157540;23;20049;-68
2022/01/29 00:07:02;;;;;;;6.22;3.60;;;;;;;;;;6156933;23;20075;-70
2022/01/29 00:09:28;;;;;;;6.00;3.33;;;;;;;;;;6131546;23;20093;-70
2022/01/29 00:11:53;;;;;;;5.88;3.55;;;;;;;;;;6131757;23;20085;-70
2022/01/29 00:14:18;;;;;;;5.53;3.50;;;;;;;;;;6131262;23;20021;-70
2022/01/29 00:16:44;;;;;;;6.70;4.25;;;;;;;;;;6131175;23;20002;-70
2022/01/29 00:19:10;;;;;;;8.00;3.20;;;;;;;;;;6157131;23;20346;-70
2022/01/29 00:21:36;;;;;;;5.20;3.25;;;;;;;;;;6157209;23;20493;-70
2022/01/29 00:24:01;;;;;;;4.97;3.05;;;;;;;;;;6157041;23;20005;-70
2022/01/29 00:26:28;;;;;;;7.60;3.20;;;;;;;;;;6157421;23;20427;-69
2022/01/29 00:28:55;;;;;;;6.25;3.58;;;;;;;;;;6157324;23;20004;-69
2022/01/29 00:31:20;;;;;;;5.70;3.60;;;;;;;;;;6157267;23;20016;-69
2022/01/29 00:33:46;;;;;;;6.13;3.78;;;;;;;;;;6157348;23;20005;-69
2022/01/29 00:36:11;;;;;;;6.28;3.80;;;;;;;;;;6130933;23;20016;-70
2022/01/29 00:38:38;;;;;;;5.15;3.47;;;;;;;;;;6156867;23;20311;-69
2022/01/29 00:41:03;;;;;;;6.65;3.50;;;;;;;;;;6157216;23;20017;-68
2022/01/29 00:43:29;;;;;;;5.72;3.53;;;;;;;;;;6130798;23;19997;-67
2022/01/29 00:45:55;;;;;;;4.47;2.78;;;;;;;;;;6130137;23;20001;-68
2022/01/29 00:48:20;;;;;;;6.50;2.90;;;;;;;;;;6156868;23;20005;-68
2022/01/29 00:50:46;;;;;;;5.20;2.78;;;;;;;;;;6157336;23;20288;-67
2022/01/29 00:53:11;;;;;;;4.75;2.60;;;;;;;;;;6157031;23;20009;-67
2022/01/29 00:55:37;;;;;;;4.00;2.80;;;;;;;;;;6156876;23;20006;-68
2022/01/29 00:58:02;;;;;;;4.63;2.60;;;;;;;;;;6130664;23;20143;-67
2022/01/29 01:00:28;;;;;;;6.38;2.60;;;;;;;;;;6156846;23;20132;-68
2022/01/29 01:02:53;;;;;;;4.13;2.35;;;;;;;;;;6157144;23;20092;-68
2022/01/29 01:05:19;;;;;;;4.90;2.72;;;;;;;;;;6130648;23;20011;-68
2022/01/29 01:07:44;;;;;;;5.55;2.78;;;;;;;;;;6156102;23;20025;-68
2022/01/29 01:10:11;;;;;;;4.75;2.63;;;;;;;;;;6130951;23;20358;-67
2022/01/29 01:12:36;;;;;;;4.75;3.03;;;;;;;;;;6157094;23;20312;-67
2022/01/29 01:15:04;;;;;;;6.32;2.95;;;;;;;;;;6157296;23;20092;-67
2022/01/29 01:17:30;;;;;;;7.05;3.05;;;;;;;;;;6156782;23;20001;-67
2022/01/29 01:19:55;;;;;;;4.32;2.83;;;;;;;;;;6156944;23;20010;-67
2022/01/29 01:22:21;;;;;;;9.02;3.10;;;;;;;;;;6156741;23;19998;-67
2022/01/29 01:24:47;;;;;;;3.97;2.55;;;;;;;;;;6130424;23;20033;-67
2022/01/29 01:27:13;;;;;;;6.55;2.83;;;;;;;;;;6156772;23;20371;-69
2022/01/29 01:29:38;;;;;;;4.82;3.08;;;;;;;;;;6156858;23;20012;-69
2022/01/29 01:32:05;;;;;;;4.55;3.05;;;;;;;;;;6156454;23;20004;-69
2022/01/29 01:34:34;;;;;;;6.55;3.40;;;;;;;;;;6156403;23;20005;-69
2022/01/29 01:37:06;;;;;;;5.07;2.87;;;;;;;;;;6156104;23;20422;-69
2022/01/29 01:39:35;;;;;;;5.82;2.95;;;;;;;;;;6130126;23;20081;-69
2022/01/29 01:42:05;;;;;;;6.45;3.30;;;;;;;;;;6156421;23;20093;-69
2022/01/29 01:44:34;;;;;;;5.28;3.05;;;;;;;;;;6130616;23;20072;-69
2022/01/29 01:46:59;;;;;;;5.35;2.90;;;;;;;;;;6156267;23;20001;-69
2022/01/29 01:49:25;;;;;;;6.10;3.30;;;;;;;;;;6156502;23;20008;-69
2022/01/29 01:51:50;;;;;;;4.70;2.92;;;;;;;;;;6156120;23;19997;-70
2022/01/29 01:54:16;;;;;;;5.63;3.40;;;;;;;;;;6156427;23;20006;-69
2022/01/29 01:56:41;;;;;;;4.32;3.05;;;;;;;;;;6156397;23;20023;-69
2022/01/29 01:59:06;;;;;;;5.20;3.33;;;;;;;;;;6156099;23;20009;-70
2022/01/29 02:01:47;;;;;;;3.83;2.90;;;;;;;;;;6156366;23;20006;-71
2022/01/29 02:04:44;;;;;;;3.63;2.60;;;;;;;;;;6107215;23;20014;-71
2022/01/29 02:07:50;;;;;;;3.50;2.35;;;;;;;;;;6105746;23;20362;-71
2022/01/29 02:10:38;;;;;;;4.15;2.53;;;;;;;;;;6130444;23;20092;-68
2022/01/29 02:13:51;;;;;;;4.72;2.70;;;;;;;;;;6108530;23;20037;-68
2022/01/29 02:16:28;;;;;;;5.25;3.08;;;;;;;;;;6104046;23;20013;-70
2022/01/29 02:18:53;;;;;;;4.47;3.08;;;;;;;;;;6130556;23;20010;-70
2022/01/29 02:21:19;;;;;;;4.72;3.03;;;;;;;;;;6130078;23;20335;-71
2022/01/29 02:23:45;;;;;;;6.45;3.60;;;;;;;;;;6130082;23;20012;-70
2022/01/29 02:26:10;;;;;;;6.15;2.92;;;;;;;;;;6156157;23;19998;-70
2022/01/29 02:28:36;;;;;;;5.90;3.30;;;;;;;;;;6156337;23;20128;-70
2022/01/29 02:31:04;;;;;;;6.90;3.75;;;;;;;;;;6155994;23;20009;-70
2022/01/29 02:33:34;;;;;;;8.77;3.83;;;;;;;;;;6129804;23;20327;-70
2022/01/29 02:36:00;;;;;;;;;;;;;;;;;;6156937;23;20310;-68
2022/01/29 02:38:26;;;;;;;5.65;3.15;;;;;;;;;;6129853;23;19952;-68
2022/01/29 02:41:04;;;;;;;6.53;3.72;;;;;;;;;;6156289;23;19993;-68
2022/01/29 02:43:34;;;;;;;5.10;3.28;;;;;;;;;;6156412;23;20056;-68
2022/01/29 02:46:06;;;;;;;5.55;3.42;;;;;;;;;;6156274;23;20044;-68
2022/01/29 02:48:32;;;;;;;6.53;3.88;;;;;;;;;;6155826;23;20009;-68
2022/01/29 02:50:57;;;;;;;5.40;3.22;;;;;;;;;;6155916;23;20052;-68
2022/01/29 02:53:23;;;;;;;8.15;3.92;;;;;;;;;;6156103;23;20009;-68
2022/01/29 02:55:49;;;;;;;9.18;4.10;;;;;;;;;;6156232;23;19997;-68
2022/01/29 02:58:14;;;;;;;6.13;3.83;;;;;;;;;;6156224;23;20006;-68
2022/01/29 03:00:40;;;;;;;7.50;3.92;;;;;;;;;;6156132;23;20004;-70
2022/01/29 03:03:05;;;;;;;7.78;4.07;;;;;;;;;;6156046;23;20426;-70
2022/01/29 03:05:32;;;;;;;9.75;4.93;;;;;;;;;;6155914;23;19993;-69
2022/01/29 03:07:57;;;;;;;7.78;4.28;;;;;;;;;;6128765;23;20354;-69
2022/01/29 03:10:25;;;;;;;5.38;3.83;;;;;;;;;;6156016;23;20010;-69
2022/01/29 03:12:51;;;;;;;6.72;4.57;;;;;;;;;;6155815;23;20084;-69
2022/01/29 03:15:16;;;;;;;7.95;4.10;;;;;;;;;;6155857;23;20044;-67
2022/01/29 03:17:42;;;;;;;7.05;4.25;;;;;;;;;;6155806;23;20006;-66
2022/01/29 03:20:08;;;;;;;6.18;4.10;;;;;;;;;;6156010;23;20004;-66
2022/01/29 03:22:34;;;;;;;6.85;4.45;;;;;;;;;;6155832;23;20029;-66
2022/01/29 03:24:59;;;;;;;6.50;4.07;;;;;;;;;;6155932;23;19993;-66
2022/01/29 03:27:24;;;;;;;7.13;4.35;;;;;;;;;;6155830;23;20005;-66
2022/01/29 03:29:50;;;;;;;7.90;4.55;;;;;;;;;;6129475;23;20411;-66
2022/01/29 03:32:15;;;;;;;9.48;4.40;;;;;;;;;;6129630;23;20013;-69
2022/01/29 03:34:41;;;;;;;6.85;4.22;;;;;;;;;;6155792;23;19997;-70
2022/01/29 03:37:06;;;;;;;5.95;4.00;;;;;;;;;;6155659;23;20449;-69
2022/01/29 03:39:34;;;;;;;6.72;4.47;;;;;;;;;;6155822;23;20009;-70
2022/01/29 03:42:04;;;;;;;6.30;4.25;;;;;;;;;;6155743;23;20040;-70
2022/01/29 03:44:30;;;;;;;6.50;4.20;;;;;;;;;;6156108;23;20461;-70
2022/01/29 03:46:55;;;;;;;7.28;4.43;;;;;;;;;;6130022;23;20015;-70
2022/01/29 03:49:21;;;;;;;7.88;4.55;;;;;;;;;;6155758;23;19997;-69
2022/01/29 03:51:46;;;;;;;9.35;4.85;;;;;;;;;;6155718;23;20025;-69
2022/01/29 03:54:12;;;;;;;10.48;5.07;;;;;;;;;;6155740;23;20021;-70
2022/01/29 03:56:38;;;;;;;10.05;5.40;;;;;;;;;;6156061;23;20005;-70
2022/01/29 03:59:04;;;;;;;11.52;5.53;;;;;;;;;;6155703;23;20318;-69
2022/01/29 04:01:30;;;;;;;10.40;5.97;;;;;;;;;;6157200;23;20132;-69
2022/01/29 04:03:57;;;;;;;10.82;5.78;;;;;;;;;;6157397;23;20111;-69
2022/01/29 04:06:23;;;;;;;13.20;6.60;;;;;;;;;;6157431;23;20001;-69
2022/01/29 04:08:48;;;;;;;11.57;5.65;;;;;;;;;;6157618;23;20021;-69
2022/01/29 04:11:15;;;;;;;10.80;5.57;;;;;;;;;;6157671;23;20010;-69
2022/01/29 04:13:43;;;;;;;12.48;6.10;;;;;;;;;;6157335;23;20501;-69
2022/01/29 04:16:10;;;;;;;14.07;6.60;;;;;;;;;;6157024;23;20016;-69
2022/01/29 04:18:35;;;;;;;13.15;6.88;;;;;;;;;;6156997;23;19997;-66
2022/01/29 04:21:01;;;;;;;18.23;7.93;;;;;;;;;;6157365;23;20113;-67
2022/01/29 04:23:27;;;;;;;14.90;8.10;;;;;;;;;;6157265;23;20056;-67
2022/01/29 04:25:53;;;;;;;15.32;8.45;;;;;;;;;;6157196;23;20489;-67
2022/01/29 04:28:21;;;;;;;15.50;7.72;;;;;;;;;;6157845;23;20009;-67
2022/01/29 04:30:53;;;;;;;18.45;7.65;;;;;;;;;;6157046;23;20009;-67
2022/01/29 04:35:43;;;;;;;17.42;8.15;;;;;;;;;;6157492;23;20439;-67
2022/01/29 04:38:09;;;;;;;15.57;8.30;;;;;;;;;;6157341;23;20064;-67
2022/01/29 04:40:35;;;;;;;14.05;7.63;;;;;;;;;;6157285;23;20048;-67
2022/01/29 04:43:04;;;;;;;16.65;8.45;;;;;;;;;;6157236;23;20009;-68
2022/01/29 04:45:30;;;;;;;14.38;7.95;;;;;;;;;;6157347;23;20048;-69
2022/01/29 04:47:55;;;;;;;17.17;7.97;;;;;;;;;;6157068;23;20013;-69
2022/01/29 04:50:21;;;;;;;14.02;8.13;;;;;;;;;;6156871;23;20008;-68
2022/01/29 04:52:47;;;;;;;16.67;8.30;;;;;;;;;;6157352;23;20012;-68
2022/01/29 04:55:14;;;;;;;16.67;8.68;;;;;;;;;;6131331;23;20410;-68
2022/01/29 04:57:41;;;;;;;18.38;9.10;;;;;;;;;;6157088;23;20005;-66
2022/01/29 05:00:11;;;;;;;16.08;8.75;;;;;;;;;;6157147;23;20485;-66
2022/01/29 05:02:37;;;;;;;15.88;8.82;;;;;;;;;;6157048;23;20089;-68
2022/01/29 05:05:03;;;;;;;18.92;9.30;;;;;;;;;;6157111;23;20033;-68
2022/01/29 05:07:29;;;;;;;17.08;8.73;;;;;;;;;;6156641;23;20326;-68
2022/01/29 05:09:55;;;;;;;18.10;9.20;;;;;;;;;;6157277;23;20013;-69
2022/01/29 05:12:26;;;;;;;17.30;8.80;;;;;;;;;;6156363;23;20493;-69
2022/01/29 05:15:08;;;;;;;15.77;9.40;;;;;;;;;;6156720;23;20005;-69
2022/01/29 05:28:31;;;;;;;16.10;9.20;;;;;;;;;;6156665;23;20016;-66
2022/01/29 05:30:57;;;;;;;15.63;9.00;;;;;;;;;;6130600;23;20001;-67
2022/01/29 05:33:23;;;;;;;15.75;10.43;;;;;;;;;;6156723;23;20017;-69
2022/01/29 05:35:48;;;;;;;16.75;10.10;;;;;;;;;;6156270;23;20002;-67
2022/01/29 05:38:14;;;;;;;18.75;9.75;;;;;;;;;;6156293;23;20015;-67
2022/01/29 05:40:39;;;;;;;13.45;9.18;;;;;;;;;;6156391;23;20002;-68
2022/01/29 05:43:05;;;;;;;15.48;9.50;;;;;;;;;;6156355;23;20134;-66
2022/01/29 05:45:30;;;;;;;14.90;8.95;;;;;;;;;;6156388;23;19993;-66
2022/01/29 05:47:56;;;;;;;15.15;9.40;;;;;;;;;;6156496;23;20442;-66
2022/01/29 05:50:21;;;;;;;13.63;9.10;;;;;;;;;;6130313;23;20414;-70
2022/01/29 05:52:47;;;;;;;14.48;8.75;;;;;;;;;;6155978;23;20037;-69
2022/01/29 05:55:12;;;;;;;13.93;8.45;;;;;;;;;;6129862;23;20004;-68
2022/01/29 05:57:38;;;;;;;14.18;8.52;;;;;;;;;;6156106;23;20009;-66
2022/01/29 06:00:04;;;;;;;15.82;9.88;;;;;;;;;;6156388;23;20025;-67
2022/01/29 06:02:40;;;;;;;18.13;9.70;;;;;;;;;;6156569;23;20013;-67
2022/01/29 06:05:06;;;;;;;17.15;10.13;;;;;;;;;;6130095;23;20084;-66
2022/01/29 06:07:31;;;;;;;16.17;10.15;;;;;;;;;;6129339;23;20021;-65
2022/01/29 06:09:58;;;;;;;17.60;11.10;;;;;;;;;;6156309;23;20010;-67
2022/01/29 06:12:24;;;;;;;16.70;10.70;;;;;;;;;;6156654;23;20015;-68
2022/01/29 06:14:50;;;;;;;15.27;10.57;;;;;;;;;;6156226;23;20010;-68
2022/01/29 06:17:15;;;;;;;16.65;10.73;;;;;;;;;;6130193;23;20076;-68
2022/01/29 06:19:41;;;;;;;17.23;10.90;;;;;;;;;;6156067;23;20001;-68
2022/01/29 06:22:10;;;;;;;18.70;11.07;;;;;;;;;;6156506;23;20076;-67
2022/01/29 06:24:36;;;;;;;15.82;10.43;;;;;;;;;;6155883;23;20394;-66
2022/01/29 06:27:02;;;;;;;17.92;10.57;;;;;;;;;;6155796;23;19998;-67
2022/01/29 06:29:28;;;;;;;22.25;12.98;;;;;;;;;;6130228;23;20001;-67
2022/01/29 06:31:53;;;;;;;15.85;9.95;;;;;;;;;;6155360;23;20009;-67
2022/01/29 06:34:19;;;;;;;18.45;11.43;;;;;;;;;;6155297;23;20036;-67
2022/01/29 06:36:44;;;;;;;20.60;12.20;;;;;;;;;;6155760;23;19993;-71
2022/01/29 06:39:18;;;;;;;23.75;12.63;;;;;;;;;;6155614;23;20013;-71
2022/01/29 06:41:43;;;;;;;37.42;19.90;;;;;;;;;;6155251;23;20012;-69
2022/01/29 06:44:09;;;;;;;59.63;27.85;;;;;;;;;;6153901;23;19997;-70
2022/01/29 06:46:34;;;;;;;26.65;14.45;;;;;;;;;;6153327;23;20303;-69
2022/01/29 06:48:59;;;;;;;18.23;9.63;;;;;;;;;;6154585;23;20036;-71
2022/01/29 06:51:26;;;;;;;21.35;11.63;;;;;;;;;;6154532;23;20081;-69
2022/01/29 06:53:51;;;;;;;33.90;16.25;;;;;;;;;;6154506;23;20004;-69
2022/01/29 06:56:17;;;;;;;51.88;20.95;;;;;;;;;;6154504;23;20010;-69
2022/01/29 06:58:42;;;;;;;30.58;14.45;;;;;;;;;;6128770;23;20005;-69
2022/01/29 07:01:07;;;;;;;21.50;10.85;;;;;;;;;;6154769;23;20005;-70
2022/01/29 07:03:33;;;;;;;16.75;10.05;;;;;;;;;;6153820;23;20080;-69
2022/01/29 07:05:58;;;;;;;18.83;10.13;;;;;;;;;;6154773;23;20013;-69
2022/01/29 07:08:24;;;;;;;17.10;10.05;;;;;;;;;;6155381;23;20089;-69
2022/01/29 07:10:50;;;;;;;17.35;10.30;;;;;;;;;;6155833;23;20016;-69
2022/01/29 07:13:16;;;;;;;17.33;9.65;;;;;;;;;;6155896;23;20006;-69
2022/01/29 07:15:41;;;;;;;19.80;10.02;;;;;;;;;;6155888;23;20041;-69
2022/01/29 07:18:07;;;;;;;19.00;10.18;;;;;;;;;;6130032;23;20021;-69
2022/01/29 07:20:32;;;;;;;16.98;10.82;;;;;;;;;;6155560;23;20092;-70
2022/01/29 07:22:58;;;;;;;26.48;13.75;;;;;;;;;;6155910;23;19997;-69
2022/01/29 07:25:25;;;;;;;28.23;15.48;;;;;;;;;;6155632;23;20013;-69
2022/01/29 07:27:50;;;;;;;31.45;17.00;;;;;;;;;;6155637;23;20032;-69
2022/01/29 07:30:16;;;;;;;27.20;15.15;;;;;;;;;;6155448;23;20438;-69
2022/01/29 07:32:45;;;;;;;28.60;15.80;;;;;;;;;;6155427;23;20048;-69
2022/01/29 07:35:10;;;;;;;27.33;13.77;;;;;;;;;;6156018;23;20084;-69
2022/01/29 07:37:36;;;;;;;37.35;19.67;;;;;;;;;;6157218;23;20397;-69
2022/01/29 07:40:02;;;;;;;51.88;27.25;;;;;;;;;;6131341;23;20036;-69
2022/01/29 07:42:27;;;;;;;52.78;27.17;;;;;;;;;;6157150;23;20417;-69
2022/01/29 07:44:53;;;;;;;47.92;25.95;;;;;;;;;;6157187;23;20008;-69
2022/01/29 07:47:18;;;;;;;50.45;28.10;;;;;;;;;;6157178;23;19993;-69
2022/01/29 07:49:43;;;;;;;33.75;17.48;;;;;;;;;;6157217;23;20013;-69
2022/01/29 07:52:09;;;;;;;27.48;14.10;;;;;;;;;;6157196;23;19993;-69
2022/01/29 07:54:37;;;;;;;29.85;14.85;;;;;;;;;;6157156;23;20006;-69
2022/01/29 07:57:03;;;;;;;22.15;12.45;;;;;;;;;;6157002;23;20068;-70
2022/01/29 07:59:28;;;;;;;27.38;12.57;;;;;;;;;;6157037;23;20434;-69
2022/01/29 08:01:53;;;;;;;24.98;13.80;;;;;;;;;;6157011;23;20006;-70
2022/01/29 08:04:23;;;;;;;26.27;12.60;;;;;;;;;;6157264;23;20084;-69
2022/01/29 08:06:48;;;;;;;21.63;11.57;;;;;;;;;;6156937;23;20009;-69
2022/01/29 08:09:14;;;;;;;16.20;8.05;;;;;;;;;;6156994;23;20342;-70
2022/01/29 08:11:39;;;;;;;14.60;8.07;;;;;;;;;;6157065;23;20006;-69
2022/01/29 08:14:05;;;;;;;16.95;9.35;;;;;;;;;;6130666;23;20016;-69
2022/01/29 08:16:30;;;;;;;19.48;10.18;;;;;;;;;;6157116;23;20004;-69
2022/01/29 08:18:56;;;;;;;17.98;10.00;;;;;;;;;;6156887;23;20012;-69
2022/01/29 08:21:22;;;;;;;21.48;10.13;;;;;;;;;;6156953;23;20300;-69
2022/01/29 08:23:47;;;;;;;17.50;8.02;;;;;;;;;;6130698;23;20010;-69
2022/01/29 08:26:13;;;;;;;24.75;9.48;;;;;;;;;;6156808;23;20000;-69
2022/01/29 08:28:38;;;;;;;15.23;8.48;;;;;;;;;;6156848;23;20005;-70
2022/01/29 08:31:05;;;;;;;16.30;8.63;;;;;;;;;;6156845;23;20009;-69
2022/01/29 08:33:30;;;;;;;17.25;8.70;;;;;;;;;;6156818;23;20010;-69
2022/01/29 08:35:57;;;;;;;28.17;11.07;;;;;;;;;;6130803;23;20001;-70
2022/01/29 08:38:23;;;;;;;21.77;9.50;;;;;;;;;;6156509;23;20006;-69
2022/01/29 08:40:48;;;;;;;16.38;7.82;;;;;;;;;;6156632;23;19997;-69
2022/01/29 08:43:14;;;;;;;15.13;8.13;;;;;;;;;;6156595;23;20013;-69
2022/01/29 08:45:39;;;;;;;16.15;8.05;;;;;;;;;;6156503;23;20001;-69
2022/01/29 08:48:05;;;;;;;14.85;7.28;;;;;;;;;;6130428;23;20036;-69
2022/01/29 08:50:30;;;;;;;15.77;6.80;;;;;;;;;;6156654;23;20008;-70
2022/01/29 08:52:56;;;;;;;41.13;17.17;;;;;;;;;;6156214;23;20090;-70
2022/01/29 08:55:21;;;;;;;22.45;11.23;;;;;;;;;;6130354;23;20430;-69
2022/01/29 08:57:47;;;;;;;20.83;9.65;;;;;;;;;;6156444;23;20333;-69
2022/01/29 09:00:12;;;;;;;17.70;9.52;;;;;;;;;;6156353;23;20080;-69
2022/01/29 09:02:38;;;;;;;22.98;10.13;;;;;;;;;;6156438;23;20084;-69
2022/01/29 09:05:03;;;;;;;19.48;9.80;;;;;;;;;;6156362;23;20059;-69
2022/01/29 09:07:29;;;;;;;13.77;7.05;;;;;;;;;;6155851;23;20025;-69
2022/01/29 09:09:55;;;;;;;19.77;7.55;;;;;;;;;;6156656;23;20014;-69
2022/01/29 09:12:20;;;;;;;22.60;11.38;;;;;;;;;;6156281;23;20009;-70
2022/01/29 09:14:46;;;;;;;18.17;8.38;;;;;;;;;;6156254;23;20445;-70
2022/01/29 09:17:11;;;;;;;20.05;8.27;;;;;;;;;;6156269;23;20052;-69
2022/01/29 09:19:37;;;;;;;19.67;9.93;;;;;;;;;;6156543;23;20024;-70
2022/01/29 09:22:03;;;;;;;15.13;8.57;;;;;;;;;;6130502;23;19998;-70
2022/01/29 09:24:28;;;;;;;16.33;8.60;;;;;;;;;;6156260;23;20008;-70
2022/01/29 09:26:54;;;;;;;16.17;7.38;;;;;;;;;;6156282;23;20545;-70
2022/01/29 09:29:19;;;;;;;11.93;5.38;;;;;;;;;;6156233;23;20009;-73
2022/01/29 09:31:44;;;;;;;13.05;6.60;;;;;;;;;;6156111;23;20009;-71
2022/01/29 09:34:10;;;;;;;23.75;10.70;;;;;;;;;;6156212;23;20382;-71
2022/01/29 09:36:35;;;;;;;13.60;6.20;;;;;;;;;;6156210;23;20064;-70
2022/01/29 09:39:00;;;;;;;13.35;6.82;;;;;;;;;;6155957;23;20521;-71
2022/01/29 09:41:27;;;;;;;7.13;4.13;;;;;;;;;;6156244;23;20048;-70
2022/01/29 09:43:53;;;;;;;12.90;6.60;;;;;;;;;;6129684;23;20362;-70
2022/01/29 09:46:18;;;;;;;13.25;5.43;;;;;;;;;;6156139;23;20005;-70
2022/01/29 09:48:44;;;;;;;16.00;6.68;;;;;;;;;;6156024;23;20021;-70
2022/01/29 09:51:13;;;;;;;13.20;6.78;;;;;;;;;;6130071;23;20012;-70
2022/01/29 09:53:44;;;;;;;10.65;5.38;;;;;;;;;;6155992;23;20092;-70
2022/01/29 09:56:10;;;;;;;11.80;6.18;;;;;;;;;;6130098;23;20016;-71
2022/01/29 09:58:36;;;;;;;12.25;5.93;;;;;;;;;;6155580;23;20001;-70
2022/01/29 10:01:01;;;;;;;13.07;6.18;;;;;;;;;;6156018;23;20438;-70
2022/01/29 10:03:27;;;;;;;13.30;6.28;;;;;;;;;;6129929;23;19997;-70
2022/01/29 10:05:53;;;;;;;7.10;3.85;;;;;;;;;;6155936;23;20033;-71
2022/01/29 10:08:20;;;;;;;9.00;4.55;;;;;;;;;;6155196;23;20056;-70
2022/01/29 10:10:47;;;;;;;9.55;4.63;;;;;;;;;;6155790;23;20020;-70
2022/01/29 10:13:25;;;;;;;10.30;4.55;;;;;;;;;;6155847;23;20005;-70
2022/01/29 10:15:52;;;;;;;12.13;5.70;;;;;;;;;;6155907;23;20006;-70
2022/01/29 10:18:21;;;;;;;11.63;5.35;;;;;;;;;;6155877;23;19997;-70
2022/01/29 10:20:46;;;;;;;12.57;6.38;;;;;;;;;;6155711;23;20006;-70
2022/01/29 10:23:12;;;;;;;12.05;5.78;;;;;;;;;;6155868;23;20445;-70
2022/01/29 10:25:41;;;;;;;7.60;4.00;;;;;;;;;;6155602;23;20005;-70
2022/01/29 10:28:11;;;;;;;4.00;2.38;;;;;;;;;;6155763;23;20009;-70
2022/01/29 10:30:56;;;;;;;8.95;5.13;;;;;;;;;;6155543;23;20084;-70
2022/01/29 10:33:22;;;;;;;6.85;4.25;;;;;;;;;;6155193;23;20045;-70
2022/01/29 10:35:48;;;;;;;8.63;4.38;;;;;;;;;;6155736;23;20012;-70
2022/01/29 10:38:17;;;;;;;8.32;3.47;;;;;;;;;;6155664;23;20005;-70
2022/01/29 10:40:43;;;;;;;8.27;4.28;;;;;;;;;;6129115;23;20013;-70
2022/01/29 10:43:09;;;;;;;8.20;4.35;;;;;;;;;;6155652;23;20378;-70
2022/01/29 10:45:35;;;;;;;6.95;4.03;;;;;;;;;;6155679;23;19997;-70
2022/01/29 10:48:04;;;;;;;8.35;3.85;;;;;;;;;;6155987;23;20009;-70
2022/01/29 10:50:30;;;;;;;11.15;5.20;;;;;;;;;;6155745;23;20005;-70
2022/01/29 10:52:56;;;;;;;6.43;4.00;;;;;;;;;;6155679;23;20025;-70
2022/01/29 10:55:21;;;;;;;9.95;5.18;;;;;;;;;;6155612;23;20006;-70
2022/01/29 10:57:48;;;;;;;7.22;3.47;;;;;;;;;;6155407;23;20016;-70
2022/01/29 11:00:17;;;;;;;11.93;4.90;;;;;;;;;;6155764;23;19994;-70
2022/01/29 11:02:44;;;;;;;9.93;4.65;;;;;;;;;;6155535;23;20064;-70
2022/01/29 11:05:09;;;;;;;11.13;5.20;;;;;;;;;;6155658;23;20414;-70
2022/01/29 11:07:35;;;;;;;9.95;5.10;;;;;;;;;;6154948;23;20020;-70
2022/01/29 11:10:03;;;;;;;6.75;4.10;;;;;;;;;;6156568;23;20009;-70
2022/01/29 11:12:30;;;;;;;5.35;3.25;;;;;;;;;;6157629;23;19998;-70
2022/01/29 11:14:59;;;;;;;11.98;5.55;;;;;;;;;;6157568;23;20009;-71
2022/01/29 11:17:25;;;;;;;9.68;5.07;;;;;;;;;;6157494;23;20001;-72
2022/01/29 11:19:50;;;;;;;9.68;4.40;;;;;;;;;;6157294;23;20001;-72
2022/01/29 11:22:27;;;;;;;7.43;4.28;;;;;;;;;;6157656;23;20001;-71
2022/01/29 11:25:00;;;;;;;7.72;4.35;;;;;;;;;;6157595;23;20001;-71
2022/01/29 11:27:28;;;;;;;12.73;4.78;;;;;;;;;;6157586;23;20006;-71
2022/01/29 11:29:57;;;;;;;7.30;5.00;;;;;;;;;;6157392;23;20322;-70
2022/01/29 11:32:23;;;;;;;13.00;5.57;;;;;;;;;;6157303;23;20387;-71
2022/01/29 11:35:07;;;;;;;11.80;5.55;;;;;;;;;;6157379;23;20021;-71
2022/01/29 11:37:44;;;;;;;4.22;3.38;;;;;;;;;;6157083;23;20009;-73
2022/01/29 11:40:14;;;;;;;13.85;5.95;;;;;;;;;;6157369;23;20048;-73
2022/01/29 11:42:59;;;;;;;10.88;5.00;;;;;;;;;;6157279;23;20088;-73
2022/01/29 11:45:38;;;;;;;10.48;4.93;;;;;;;;;;6156909;23;20020;-73
2022/01/29 11:48:05;;;;;;;8.20;4.72;;;;;;;;;;6157380;23;20346;-73
2022/01/29 11:50:32;;;;;;;12.65;4.57;;;;;;;;;;6157148;23;20047;-73
2022/01/29 11:53:04;;;;;;;9.75;4.35;;;;;;;;;;6106767;23;20009;-73
2022/01/29 11:55:32;;;;;;;5.55;3.05;;;;;;;;;;6156824;23;20456;-74
2022/01/29 11:58:12;;;;;;;11.25;4.30;;;;;;;;;;6156641;23;20418;-73
2022/01/29 12:00:38;;;;;;;;;;;;;;;;;;6157670;23;20013;-72
2022/01/29 12:03:03;;;;;;;10.55;4.68;;;;;;;;;;6131217;23;19900;-74
2022/01/29 12:05:31;;;;;;;13.20;4.53;;;;;;;;;;6130949;23;20033;-73
2022/01/29 12:08:13;;;;;;;12.23;4.35;;;;;;;;;;6156632;23;20021;-74
2022/01/29 12:10:41;;;;;;;6.18;3.63;;;;;;;;;;6130613;23;20445;-74
2022/01/29 12:13:15;;;;;;;10.00;4.13;;;;;;;;;;6156728;23;20009;-73
2022/01/29 12:15:43;;;;;;;8.40;3.90;;;;;;;;;;6156985;23;20088;-73
2022/01/29 12:18:25;;;;;;;9.43;3.40;;;;;;;;;;6156922;23;20540;-73
2022/01/29 12:20:51;;;;;;;12.68;6.03;;;;;;;;;;6156781;23;20051;-74
2022/01/29 12:23:17;;;;;;;4.40;2.65;;;;;;;;;;6156722;23;20080;-74
2022/01/29 12:25:50;;;;;;;8.75;3.63;;;;;;;;;;6130895;23;20036;-74
2022/01/29 12:28:15;;;;;;;8.57;4.20;;;;;;;;;;6156930;23;20005;-74
2022/01/29 12:30:41;;;;;;;8.60;3.65;;;;;;;;;;6157000;23;19997;-72
2022/01/29 12:33:12;;;;;;;9.93;3.72;;;;;;;;;;6156446;23;20494;-72
2022/01/29 12:35:46;;;;;;;11.82;4.20;;;;;;;;;;6156819;23;20013;-73
2022/01/29 12:38:15;;;;;;;7.40;2.97;;;;;;;;;;6156207;23;20005;-73
2022/01/29 12:40:49;;;;;;;8.18;3.38;;;;;;;;;;6130623;23;20381;-73
2022/01/29 12:46:50;;;;;;;3.22;1.52;;;;;;;;;;6157379;23;20041;-73
2022/01/29 13:03:38;;;;;;;8.13;3.33;;;;;;;;;;6096037;23;20001;-69
2022/01/29 13:13:30;;;;;;;13.05;4.68;;;;;;;;;;6095919;23;20069;-73
2022/01/29 13:19:30;;;;;;;7.68;3.53;;;;;;;;;;6095679;23;20050;-73
2022/01/29 13:21:57;;;;;;;9.60;5.30;;;;;;;;;;6072074;23;20015;-73
2022/01/29 13:24:29;;;;;;;7.13;3.00;;;;;;;;;;6094759;23;20409;-73
2022/01/29 13:27:02;;;;;;;9.05;4.28;;;;;;;;;;6131964;23;20092;-73
2022/01/29 13:29:33;;;;;;;15.40;5.43;;;;;;;;;;6157150;23;20005;-73
2022/01/29 13:35:40;;;;;;;16.08;5.65;;;;;;;;;;6156963;23;20129;-74
2022/01/29 13:41:40;;;;;;;13.60;5.53;;;;;;;;;;6156889;23;20076;-74
2022/01/29 13:58:11;;;;;;;7.05;3.92;;;;;;;;;;6038004;23;20439;-74
2022/01/29 14:18:44;;;;;;;7.43;3.38;;;;;;;;;;6127034;23;19936;-69
2022/01/29 14:24:45;;;;;;;10.18;4.47;;;;;;;;;;6127080;23;20000;-69
2022/01/29 14:30:45;;;;;;;9.27;4.68;;;;;;;;;;6127010;23;20009;-70
2022/01/29 14:36:46;;;;;;;10.18;6.05;;;;;;;;;;6127006;23;20499;-69
2022/01/29 14:42:46;;;;;;;11.68;5.07;;;;;;;;;;6126934;23;20045;-69
2022/01/29 14:48:52;;;;;;;4.72;3.28;;;;;;;;;;6126965;23;20005;-69
2022/01/29 14:58:58;;;;;;;6.60;4.28;;;;;;;;;;6126765;23;20504;-69
2022/01/29 15:05:00;;;;;;;8.55;4.60;;;;;;;;;;6126837;23;20001;-69
2022/01/29 15:14:48;;;;;;;9.38;6.47;;;;;;;;;;6156283;23;20402;-70
2022/01/29 15:20:52;;;;;;;6.32;4.20;;;;;;;;;;6156225;23;20021;-69
2022/01/29 15:26:53;;;;;;;9.10;6.05;;;;;;;;;;6156274;23;20000;-69
2022/01/29 15:32:54;;;;;;;4.70;2.22;;;;;;;;;;6156244;23;20045;-69
2022/01/29 15:38:55;;;;;;;5.88;4.05;;;;;;;;;;6156071;23;20045;-69
2022/01/29 15:44:56;;;;;;;5.55;3.78;;;;;;;;;;6156109;23;19996;-69
2022/01/29 15:50:57;;;;;;;7.82;5.60;;;;;;;;;;6156257;23;20028;-70
2022/01/29 15:56:58;;;;;;;6.43;4.80;;;;;;;;;;6157227;23;20098;-70
2022/01/29 16:02:59;;;;;;;6.47;4.65;;;;;;;;;;6157864;23;19996;-69
2022/01/29 16:09:00;;;;;;;4.95;3.53;;;;;;;;;;6157826;23;20106;-69
2022/01/29 16:18:11;;;;;;;5.63;3.88;;;;;;;;;;6157137;23;20032;-74
2022/01/29 16:23:58;;;;;;;4.57;3.30;;;;;;;;;;6157803;23;20378;-74
2022/01/29 16:26:24;;;;;;;1.95;1.45;;;;;;;;;;6131264;23;20006;-74
2022/01/29 16:28:49;;;;;;;4.20;3.50;;;;;;;;;;6156557;23;20426;-74
2022/01/29 16:31:16;;;;;;;6.88;4.60;;;;;;;;;;6156997;23;20018;-74
2022/01/29 16:33:45;;;;;;;4.90;4.20;;;;;;;;;;6156887;23;20051;-74
2022/01/29 16:36:11;;;;;;;5.05;4.43;;;;;;;;;;6131042;23;20027;-74
2022/01/29 16:38:38;;;;;;;4.43;3.25;;;;;;;;;;6156905;23;20485;-74
2022/01/29 16:41:04;;;;;;;4.22;2.95;;;;;;;;;;6130779;23;20043;-74
2022/01/29 16:43:30;;;;;;;3.33;2.60;;;;;;;;;;6130926;23;20036;-74
2022/01/29 16:45:57;;;;;;;4.43;3.10;;;;;;;;;;6156733;23;20013;-74
2022/01/29 16:48:23;;;;;;;5.93;4.07;;;;;;;;;;6156685;23;20072;-74
2022/01/29 16:50:51;;;;;;;4.82;3.58;;;;;;;;;;6130592;23;20072;-74
2022/01/29 16:53:16;;;;;;;5.43;4.32;;;;;;;;;;6130923;23;20005;-74
2022/01/29 16:55:42;;;;;;;4.15;3.72;;;;;;;;;;6156863;23;20009;-74
2022/01/29 16:58:07;;;;;;;4.88;4.35;;;;;;;;;;6156735;23;20012;-74
2022/01/29 17:00:33;;;;;;;5.70;4.30;;;;;;;;;;6156608;23;20005;-74
2022/01/29 17:02:58;;;;;;;3.67;2.88;;;;;;;;;;6156635;23;20001;-74
2022/01/29 17:05:24;;;;;;;5.18;3.10;;;;;;;;;;6156661;23;20089;-74
2022/01/29 17:07:49;;;;;;;7.55;5.90;;;;;;;;;;6129931;23;20426;-74
2022/01/29 17:10:17;;;;;;;6.78;5.35;;;;;;;;;;6156644;23;20319;-74
2022/01/29 17:12:43;;;;;;;4.20;3.80;;;;;;;;;;6156730;23;20001;-74
2022/01/29 17:15:09;;;;;;;5.15;4.32;;;;;;;;;;6156596;23;20126;-74
2022/01/29 17:17:34;;;;;;;4.47;3.38;;;;;;;;;;6156432;23;20083;-74